Grace Nicole — WDC2451 — position and weather

sailwx.info

Track history (hours):
 
Tides and Currents Weather Stations Pressure Air Temp Water Temp Dewpoint Dewpoint Depression Visibility Wind Speed Wind Dir Waves Ship Positions

Grace Nicole

Owner: Florida Marine, LLC, Mandeville, LA. More information available from US FCC via Universal Licensing System and Coast Guard Vessel Documentation Center.

Last reported at 2017-Sep-16 06:55 UTC. Time now 2017-Sep-20 18:21 UTC.
Position N 29°23' W 094°52'.

Length 28 m; draft 9.6 m.

Type: Towing. MMSI: 366993380.

Date/timePositionNaut miles runAvg speedWind from/ knotsBaromVisibWave heightAir tempDewpointWater temp
2017-Sep-16 06:55N 29°23' W 094°52'1 1.1
2017-Sep-16 06:10N 29°23' W 094°53'1 2.7
2017-Sep-16 05:54N 29°23' W 094°52'0 0.4
2017-Sep-16 05:22N 29°23' W 094°52'  
2017-Sep-13 21:21N 30°03' W 093°43'2 5.8
2017-Sep-13 21:00N 30°04' W 093°40'3 5.8
2017-Sep-13 20:30N 30°04' W 093°37'2 4.9
2017-Sep-13 20:00N 30°04' W 093°34'2 4.7
2017-Sep-13 19:30N 30°04' W 093°31'2 4.6
2017-Sep-13 19:00N 30°04' W 093°29'2 4.6
2017-Sep-13 18:30N 30°04' W 093°26'2 4.5
2017-Sep-13 18:00N 30°04' W 093°23'2 4.1
2017-Sep-13 17:30N 30°04' W 093°21'2 3.6
2017-Sep-13 17:00N 30°05' W 093°20'3 5.8
2017-Sep-13 16:30N 30°08' W 093°20'2 3.0
2017-Sep-13 16:00N 30°10' W 093°19'0 0.0
2017-Sep-13 15:30N 30°10' W 093°19'0 0.0
2017-Sep-13 15:00N 30°10' W 093°19'0 0.0
2017-Sep-13 14:30N 30°10' W 093°19'0 0.0
2017-Sep-13 14:00N 30°10' W 093°19'0 0.0
2017-Sep-13 13:30N 30°10' W 093°19'0 0.0
2017-Sep-13 13:00N 30°10' W 093°19'0 0.0
2017-Sep-13 12:30N 30°10' W 093°19'0 0.0
2017-Sep-13 12:00N 30°10' W 093°19'0 0.0
2017-Sep-13 11:30N 30°10' W 093°19'0 0.0
2017-Sep-13 11:00N 30°10' W 093°19'0 0.0
2017-Sep-13 10:30N 30°10' W 093°19'0 0.0
2017-Sep-13 10:00N 30°10' W 093°19'0 0.0
2017-Sep-13 09:30N 30°10' W 093°19'0 0.0
2017-Sep-13 09:00N 30°10' W 093°19'0 0.0
2017-Sep-13 08:30N 30°10' W 093°19'0 0.0
2017-Sep-13 08:00N 30°10' W 093°19'0 0.0
2017-Sep-13 07:30N 30°10' W 093°19'0 0.0
2017-Sep-13 07:00N 30°10' W 093°19'0 0.0
2017-Sep-13 06:30N 30°10' W 093°19'0 0.0
2017-Sep-13 06:00N 30°10' W 093°19'0 0.0
2017-Sep-13 05:30N 30°10' W 093°19'0 0.0
2017-Sep-13 05:00N 30°10' W 093°19'0 0.0
2017-Sep-13 04:30N 30°10' W 093°19'0 0.0
2017-Sep-13 04:00N 30°10' W 093°19'0 0.0
2017-Sep-13 03:30N 30°10' W 093°19'0 0.0
2017-Sep-13 03:00N 30°10' W 093°19'0 0.0
2017-Sep-13 02:30N 30°10' W 093°19'0 0.0
2017-Sep-13 02:00N 30°10' W 093°19'0 0.0
2017-Sep-13 01:30N 30°10' W 093°19'0 0.0
2017-Sep-13 01:00N 30°10' W 093°19'0 0.0
2017-Sep-13 00:30N 30°10' W 093°19'0 0.0
2017-Sep-13 00:00N 30°10' W 093°19'1 2.3
2017-Sep-12 23:30N 30°08' W 093°20'2 3.3
2017-Sep-12 23:00N 30°07' W 093°20'1 2.5
2017-Sep-12 22:30N 30°06' W 093°20'1 1.5
2017-Sep-12 22:00N 30°05' W 093°20'0 0.1
2017-Sep-12 21:30N 30°05' W 093°20'0 0.0
2017-Sep-12 21:01N 30°05' W 093°20'0 0.0
2017-Sep-12 20:30N 30°05' W 093°20'0 0.0
2017-Sep-12 20:00N 30°05' W 093°20'0 0.5
2017-Sep-12 19:30N 30°05' W 093°20'0 0.5
2017-Sep-12 19:00N 30°05' W 093°20'0 0.0
2017-Sep-12 18:30N 30°05' W 093°20'0 0.0
2017-Sep-12 18:00N 30°05' W 093°20'0 0.0
2017-Sep-12 17:30N 30°05' W 093°20'0 0.0
2017-Sep-12 17:00N 30°05' W 093°20'0 0.0
2017-Sep-12 16:30N 30°05' W 093°20'0 0.0
2017-Sep-12 16:00N 30°05' W 093°20'0 0.0
2017-Sep-12 15:30N 30°05' W 093°20'0 0.0
2017-Sep-12 15:00N 30°05' W 093°20'0 0.0
2017-Sep-12 14:30N 30°05' W 093°20'1 1.7
2017-Sep-12 14:00N 30°06' W 093°19'1 0.1
2017-Sep-12 06:19N 30°05' W 093°20'0 0.0
2017-Sep-12 06:00N 30°05' W 093°20'0 0.0
2017-Sep-12 05:29N 30°05' W 093°20'0 0.0
2017-Sep-12 05:00N 30°05' W 093°20'0 0.0
2017-Sep-12 04:30N 30°05' W 093°20'0 0.0
2017-Sep-12 04:00N 30°05' W 093°20'0 0.0
2017-Sep-12 03:30N 30°05' W 093°20'0 0.0
2017-Sep-12 03:00N 30°05' W 093°20'0 0.0
2017-Sep-12 02:30N 30°05' W 093°20'0 0.0
2017-Sep-12 02:00N 30°05' W 093°20'0 0.1
2017-Sep-12 01:30N 30°05' W 093°20'0 0.1
2017-Sep-12 01:00N 30°05' W 093°20'0 0.0
2017-Sep-12 00:30N 30°05' W 093°20'0 0.0
2017-Sep-12 00:00N 30°05' W 093°20'0 0.0
2017-Sep-11 23:30N 30°05' W 093°20'0 0.5
2017-Sep-11 23:00N 30°05' W 093°20'0 0.0
2017-Sep-11 22:30N 30°05' W 093°20'0 0.0
2017-Sep-11 22:00N 30°05' W 093°20'0 0.1
2017-Sep-11 21:31N 30°05' W 093°20'0 0.5
2017-Sep-11 21:00N 30°05' W 093°20'0 0.0
2017-Sep-11 20:30N 30°05' W 093°20'0 0.0
2017-Sep-11 20:00N 30°05' W 093°20'0 0.0
2017-Sep-11 19:30N 30°05' W 093°20'0 0.0
2017-Sep-11 19:00N 30°05' W 093°20'0 0.0
2017-Sep-11 18:30N 30°05' W 093°20'0 0.0
2017-Sep-11 18:00N 30°05' W 093°20'0 0.0
2017-Sep-11 17:30N 30°05' W 093°20'0 0.0
2017-Sep-11 17:00N 30°05' W 093°20'0 0.0
2017-Sep-11 16:30N 30°05' W 093°20'0 0.0
2017-Sep-11 16:00N 30°05' W 093°20'0 0.0
2017-Sep-11 15:30N 30°05' W 093°20'0 0.0
2017-Sep-11 14:52N 30°05' W 093°20'0 0.0
2017-Sep-11 14:30N 30°05' W 093°20'0 0.0
2017-Sep-11 14:00N 30°05' W 093°20'0 0.0
2017-Sep-11 13:28N 30°05' W 093°20'0 0.0
2017-Sep-11 12:01N 30°05' W 093°20'0 0.0
2017-Sep-11 12:00N 30°05' W 093°20'0 0.0
2017-Sep-11 11:28N 30°05' W 093°20'0 0.0
2017-Sep-11 11:00N 30°05' W 093°20'0 0.0
2017-Sep-11 10:30N 30°05' W 093°20'0 0.0
2017-Sep-11 09:57N 30°05' W 093°20'0 0.0
2017-Sep-11 09:30N 30°05' W 093°20'0 0.0
2017-Sep-11 09:00N 30°05' W 093°20'0 0.0
2017-Sep-11 08:28N 30°05' W 093°20'0 0.0
2017-Sep-11 08:00N 30°05' W 093°20'0 0.0
2017-Sep-11 07:29N 30°05' W 093°20'0 0.0
2017-Sep-11 06:37N 30°05' W 093°20'0 0.0
2017-Sep-11 06:23N 30°05' W 093°20'0 0.0
2017-Sep-11 05:56N 30°05' W 093°20'0 0.0
2017-Sep-11 05:29N 30°05' W 093°20'0 0.0
2017-Sep-11 05:00N 30°05' W 093°20'0 0.0
2017-Sep-11 04:28N 30°05' W 093°20'0 0.0
2017-Sep-11 04:00N 30°05' W 093°20'0 0.0
2017-Sep-11 03:29N 30°05' W 093°20'0 0.0
2017-Sep-11 02:55N 30°05' W 093°20'0 0.0
2017-Sep-11 02:30N 30°05' W 093°20'0 0.0
2017-Sep-11 01:57N 30°05' W 093°20'0 0.0
2017-Sep-11 01:30N 30°05' W 093°20'0 0.0
2017-Sep-11 01:00N 30°05' W 093°20'0 0.5
2017-Sep-11 00:30N 30°05' W 093°20'0 0.5
2017-Sep-11 00:00N 30°05' W 093°20'0 0.0
2017-Sep-10 23:30N 30°05' W 093°20'0 0.0
2017-Sep-10 23:00N 30°05' W 093°20'0 0.0
2017-Sep-10 22:30N 30°05' W 093°20'0 0.0
2017-Sep-10 22:00N 30°05' W 093°20'0 0.1
2017-Sep-10 21:31N 30°05' W 093°20'2 4.1
2017-Sep-10 21:00N 30°06' W 093°18'0 0.0
2017-Sep-10 20:30N 30°06' W 093°18'0 0.0
2017-Sep-10 20:00N 30°06' W 093°18'0 0.1
2017-Sep-10 19:30N 30°06' W 093°18'0 0.0
2017-Sep-10 19:00N 30°06' W 093°18'0 0.0
2017-Sep-10 18:30N 30°06' W 093°18'0 0.6
2017-Sep-10 18:00N 30°06' W 093°19'2 3.4
2017-Sep-10 17:30N 30°05' W 093°20'0 0.0
2017-Sep-10 17:00N 30°05' W 093°20'0 0.0
2017-Sep-10 16:30N 30°05' W 093°20'0 0.0
2017-Sep-10 16:00N 30°05' W 093°20'0 0.0
2017-Sep-10 15:30N 30°05' W 093°20'0 0.0
2017-Sep-10 15:00N 30°05' W 093°20'0 0.0
2017-Sep-10 14:00N 30°05' W 093°20'0 0.2
2017-Sep-10 12:50N 30°05' W 093°20'0 0.0
2017-Sep-10 12:30N 30°05' W 093°20'0 0.0
2017-Sep-10 11:57N 30°05' W 093°20'0 0.0
2017-Sep-10 10:17N 30°05' W 093°20'0 1.3
2017-Sep-10 10:00N 30°05' W 093°20'1 1.6
2017-Sep-10 09:30N 30°06' W 093°19'0 0.3
2017-Sep-10 09:00N 30°06' W 093°19'2 3.9
2017-Sep-10 08:30N 30°04' W 093°21'2 4.0
2017-Sep-10 07:58N 30°04' W 093°23'2 4.8
2017-Sep-10 07:30N 30°04' W 093°26'2 3.3
2017-Sep-10 07:00N 30°04' W 093°27'1 1.3
2017-Sep-10 06:30N 30°04' W 093°28'0 0.3
2017-Sep-10 06:00N 30°04' W 093°28'1 2.4
2017-Sep-10 05:29N 30°04' W 093°30'2 4.1
2017-Sep-10 05:00N 30°04' W 093°32'0 0.1
2017-Sep-10 04:30N 30°04' W 093°32'0 0.0
2017-Sep-10 04:00N 30°04' W 093°32'0 0.0
2017-Sep-10 03:30N 30°04' W 093°32'0 0.0
2017-Sep-10 03:00N 30°04' W 093°32'0 0.0
2017-Sep-10 02:30N 30°04' W 093°32'0 0.0
2017-Sep-10 02:00N 30°04' W 093°32'0 0.0
2017-Sep-10 01:30N 30°04' W 093°32'0 0.0
2017-Sep-10 01:00N 30°04' W 093°32'0 0.0
2017-Sep-10 00:30N 30°04' W 093°32'0 0.0
2017-Sep-10 00:00N 30°04' W 093°32'0 0.0
2017-Sep-09 23:30N 30°04' W 093°32'0 0.0
2017-Sep-09 23:00N 30°04' W 093°32'0 0.0
2017-Sep-09 22:30N 30°04' W 093°32'0 0.0
2017-Sep-09 22:00N 30°04' W 093°32'0 0.0
2017-Sep-09 21:30N 30°04' W 093°32'0 0.0
2017-Sep-09 21:00N 30°04' W 093°32'0 0.0
2017-Sep-09 20:30N 30°04' W 093°32'0 0.0
2017-Sep-09 20:00N 30°04' W 093°32'0 0.0
2017-Sep-09 19:30N 30°04' W 093°32'0 0.0
2017-Sep-09 19:00N 30°04' W 093°32'0 0.0
2017-Sep-09 18:30N 30°04' W 093°32'0 0.0
2017-Sep-09 18:00N 30°04' W 093°32'0 0.0
2017-Sep-09 17:30N 30°04' W 093°32'0 0.0
2017-Sep-09 17:00N 30°04' W 093°32'0 0.0
2017-Sep-09 16:30N 30°04' W 093°32'0 0.0
2017-Sep-09 16:00N 30°04' W 093°32'0 0.0
2017-Sep-09 15:30N 30°04' W 093°32'0 0.0
2017-Sep-09 15:00N 30°04' W 093°32'0 0.0
2017-Sep-09 14:29N 30°04' W 093°32'0 0.0
2017-Sep-09 13:58N 30°04' W 093°32'0 0.0
2017-Sep-09 13:03N 30°04' W 093°32'0 0.0
2017-Sep-09 13:00N 30°04' W 093°32'0 0.0
2017-Sep-09 12:30N 30°04' W 093°32'0 0.0
2017-Sep-09 12:00N 30°04' W 093°32'0 0.0
2017-Sep-09 11:23N 30°04' W 093°32'0 0.0
2017-Sep-09 10:57N 30°04' W 093°32'0 0.0
2017-Sep-09 10:26N 30°04' W 093°32'0 0.0
2017-Sep-09 09:58N 30°04' W 093°32'0 0.0
2017-Sep-09 09:30N 30°04' W 093°32'0 0.0
2017-Sep-09 08:57N 30°04' W 093°32'0 0.0
2017-Sep-09 08:30N 30°04' W 093°32'0 0.0
2017-Sep-09 07:59N 30°04' W 093°32'0 0.0
2017-Sep-09 07:30N 30°04' W 093°32'0 0.0
2017-Sep-09 07:00N 30°04' W 093°32'0 0.0
2017-Sep-09 06:30N 30°04' W 093°32'0 0.0
2017-Sep-09 04:29N 30°04' W 093°32'0 0.0
2017-Sep-09 03:50N 30°04' W 093°32'0 0.0
2017-Sep-09 03:10N 30°04' W 093°32'0 0.0
2017-Sep-09 03:00N 30°04' W 093°32'0 0.0
2017-Sep-09 02:22N 30°04' W 093°32'0 0.0
2017-Sep-09 02:00N 30°04' W 093°32'0 0.0
2017-Sep-09 01:21N 30°04' W 093°32'0 0.0
2017-Sep-09 01:00N 30°04' W 093°32'0 0.0
2017-Sep-09 00:30N 30°04' W 093°32'0 0.0
2017-Sep-09 00:00N 30°04' W 093°32'0 0.0
2017-Sep-08 23:30N 30°04' W 093°32'0 0.0
2017-Sep-08 23:00N 30°04' W 093°32'0 0.0
2017-Sep-08 22:30N 30°04' W 093°32'0 0.0
2017-Sep-08 22:00N 30°04' W 093°32'0 0.0
2017-Sep-08 21:29N 30°04' W 093°32'0 0.0
2017-Sep-08 21:00N 30°04' W 093°32'0 0.0
2017-Sep-08 20:30N 30°04' W 093°32'0 0.0
2017-Sep-08 20:00N 30°04' W 093°32'0 0.0
2017-Sep-08 19:30N 30°04' W 093°32'0 0.0
2017-Sep-08 19:00N 30°04' W 093°32'0 0.0
2017-Sep-08 18:30N 30°04' W 093°32'0 0.0
2017-Sep-08 18:00N 30°04' W 093°32'0 0.0
2017-Sep-08 17:30N 30°04' W 093°32'0 0.0
2017-Sep-08 17:00N 30°04' W 093°32'0 0.0
2017-Sep-08 16:30N 30°04' W 093°32'0 0.0
2017-Sep-08 16:00N 30°04' W 093°32'0 0.0
2017-Sep-08 15:30N 30°04' W 093°32'0 0.0
2017-Sep-08 15:00N 30°04' W 093°32'0 0.0
2017-Sep-08 14:30N 30°04' W 093°32'0 0.0
2017-Sep-08 14:00N 30°04' W 093°32'0 0.0
2017-Sep-08 13:10N 30°04' W 093°32'0 0.0
2017-Sep-08 13:00N 30°04' W 093°32'0 0.0
2017-Sep-08 12:30N 30°04' W 093°32'0 0.0
2017-Sep-08 12:00N 30°04' W 093°32'0 0.0
2017-Sep-08 11:30N 30°04' W 093°32'0 0.0
2017-Sep-08 08:48N 30°04' W 093°32'0 0.0
2017-Sep-08 08:18N 30°04' W 093°32'0 0.0
2017-Sep-08 07:55N 30°04' W 093°32'0 0.0
2017-Sep-08 07:30N 30°04' W 093°32'0 0.0
2017-Sep-08 06:44N 30°04' W 093°32'0 0.0
2017-Sep-08 06:16N 30°04' W 093°32'0 0.0
2017-Sep-08 04:57N 30°04' W 093°32'0 0.0
2017-Sep-08 02:17N 30°04' W 093°32'0 0.0
2017-Sep-08 02:00N 30°04' W 093°32'0 0.0
2017-Sep-08 01:27N 30°04' W 093°32'0 0.0
2017-Sep-08 01:00N 30°04' W 093°32'0 0.2
2017-Sep-08 00:30N 30°04' W 093°32'1 1.5
2017-Sep-08 00:00N 30°04' W 093°33'0 0.3
2017-Sep-07 23:30N 30°04' W 093°33'0 0.3
2017-Sep-07 23:00N 30°04' W 093°33'0 0.4
2017-Sep-07 22:30N 30°04' W 093°34'0 0.0
2017-Sep-07 22:00N 30°04' W 093°34'0 0.1
2017-Sep-07 21:30N 30°04' W 093°34'2 3.1
2017-Sep-07 21:00N 30°04' W 093°35'3 5.0
2017-Sep-07 20:30N 30°04' W 093°38'72 2.1
2017-Sep-06 10:32N 29°29' W 094°52'0 5.5
2017-Sep-06 10:30N 29°29' W 094°52'3 5.4
2017-Sep-06 10:00N 29°31' W 094°53'3 5.3
2017-Sep-06 09:30N 29°33' W 094°55'3 5.4
2017-Sep-06 09:00N 29°36' W 094°57'3 6.1
2017-Sep-06 08:30N 29°38' W 094°58'3 6.4
2017-Sep-06 08:00N 29°41' W 094°59'3 5.4
2017-Sep-06 07:27N 29°44' W 095°01'3 5.3
2017-Sep-06 06:55N 29°45' W 095°04'  
Track history (hours):
 
Tides and Currents Weather Stations Pressure Air Temp Water Temp Dewpoint Dewpoint Depression Visibility Wind Speed Wind Dir Waves Ship Positions

Grace Nicole

Owner: Florida Marine, LLC, Mandeville, LA. More information available from US FCC via Universal Licensing System and Coast Guard Vessel Documentation Center.

Last reported at 2017-Sep-16 06:55 UTC. Time now 2017-Sep-20 18:21 UTC.
Position N 29°23' W 094°52'.

Length 28 m; draft 9.6 m.

Type: Towing. MMSI: 366993380.

Date/timePositionNaut miles runAvg speedWind from/ knotsBaromVisibWave heightAir tempDewpointWater temp
2017-Sep-16 06:55N 29°23' W 094°52'1 1.1
2017-Sep-16 06:10N 29°23' W 094°53'1 2.7
2017-Sep-16 05:54N 29°23' W 094°52'0 0.4
2017-Sep-16 05:22N 29°23' W 094°52'  
2017-Sep-13 21:21N 30°03' W 093°43'2 5.8
2017-Sep-13 21:00N 30°04' W 093°40'3 5.8
2017-Sep-13 20:30N 30°04' W 093°37'2 4.9
2017-Sep-13 20:00N 30°04' W 093°34'2 4.7
2017-Sep-13 19:30N 30°04' W 093°31'2 4.6
2017-Sep-13 19:00N 30°04' W 093°29'2 4.6
2017-Sep-13 18:30N 30°04' W 093°26'2 4.5
2017-Sep-13 18:00N 30°04' W 093°23'2 4.1
2017-Sep-13 17:30N 30°04' W 093°21'2 3.6
2017-Sep-13 17:00N 30°05' W 093°20'3 5.8
2017-Sep-13 16:30N 30°08' W 093°20'2 3.0
2017-Sep-13 16:00N 30°10' W 093°19'0 0.0
2017-Sep-13 15:30N 30°10' W 093°19'0 0.0
2017-Sep-13 15:00N 30°10' W 093°19'0 0.0
2017-Sep-13 14:30N 30°10' W 093°19'0 0.0
2017-Sep-13 14:00N 30°10' W 093°19'0 0.0
2017-Sep-13 13:30N 30°10' W 093°19'0 0.0
2017-Sep-13 13:00N 30°10' W 093°19'0 0.0
2017-Sep-13 12:30N 30°10' W 093°19'0 0.0
2017-Sep-13 12:00N 30°10' W 093°19'0 0.0
2017-Sep-13 11:30N 30°10' W 093°19'0 0.0
2017-Sep-13 11:00N 30°10' W 093°19'0 0.0
2017-Sep-13 10:30N 30°10' W 093°19'0 0.0
2017-Sep-13 10:00N 30°10' W 093°19'0 0.0
2017-Sep-13 09:30N 30°10' W 093°19'0 0.0
2017-Sep-13 09:00N 30°10' W 093°19'0 0.0
2017-Sep-13 08:30N 30°10' W 093°19'0 0.0
2017-Sep-13 08:00N 30°10' W 093°19'0 0.0
2017-Sep-13 07:30N 30°10' W 093°19'0 0.0
2017-Sep-13 07:00N 30°10' W 093°19'0 0.0
2017-Sep-13 06:30N 30°10' W 093°19'0 0.0
2017-Sep-13 06:00N 30°10' W 093°19'0 0.0
2017-Sep-13 05:30N 30°10' W 093°19'0 0.0
2017-Sep-13 05:00N 30°10' W 093°19'0 0.0
2017-Sep-13 04:30N 30°10' W 093°19'0 0.0
2017-Sep-13 04:00N 30°10' W 093°19'0 0.0
2017-Sep-13 03:30N 30°10' W 093°19'0 0.0
2017-Sep-13 03:00N 30°10' W 093°19'0 0.0
2017-Sep-13 02:30N 30°10' W 093°19'0 0.0
2017-Sep-13 02:00N 30°10' W 093°19'0 0.0
2017-Sep-13 01:30N 30°10' W 093°19'0 0.0
2017-Sep-13 01:00N 30°10' W 093°19'0 0.0
2017-Sep-13 00:30N 30°10' W 093°19'0 0.0
2017-Sep-13 00:00N 30°10' W 093°19'1 2.3
2017-Sep-12 23:30N 30°08' W 093°20'2 3.3
2017-Sep-12 23:00N 30°07' W 093°20'1 2.5
2017-Sep-12 22:30N 30°06' W 093°20'1 1.5
2017-Sep-12 22:00N 30°05' W 093°20'0 0.1
2017-Sep-12 21:30N 30°05' W 093°20'0 0.0
2017-Sep-12 21:01N 30°05' W 093°20'0 0.0
2017-Sep-12 20:30N 30°05' W 093°20'0 0.0
2017-Sep-12 20:00N 30°05' W 093°20'0 0.5
2017-Sep-12 19:30N 30°05' W 093°20'0 0.5
2017-Sep-12 19:00N 30°05' W 093°20'0 0.0
2017-Sep-12 18:30N 30°05' W 093°20'0 0.0
2017-Sep-12 18:00N 30°05' W 093°20'0 0.0
2017-Sep-12 17:30N 30°05' W 093°20'0 0.0
2017-Sep-12 17:00N 30°05' W 093°20'0 0.0
2017-Sep-12 16:30N 30°05' W 093°20'0 0.0
2017-Sep-12 16:00N 30°05' W 093°20'0 0.0
2017-Sep-12 15:30N 30°05' W 093°20'0 0.0
2017-Sep-12 15:00N 30°05' W 093°20'0 0.0
2017-Sep-12 14:30N 30°05' W 093°20'1 1.7
2017-Sep-12 14:00N 30°06' W 093°19'1 0.1
2017-Sep-12 06:19N 30°05' W 093°20'0 0.0
2017-Sep-12 06:00N 30°05' W 093°20'0 0.0
2017-Sep-12 05:29N 30°05' W 093°20'0 0.0
2017-Sep-12 05:00N 30°05' W 093°20'0 0.0
2017-Sep-12 04:30N 30°05' W 093°20'0 0.0
2017-Sep-12 04:00N 30°05' W 093°20'0 0.0
2017-Sep-12 03:30N 30°05' W 093°20'0 0.0
2017-Sep-12 03:00N 30°05' W 093°20'0 0.0
2017-Sep-12 02:30N 30°05' W 093°20'0 0.0
2017-Sep-12 02:00N 30°05' W 093°20'0 0.1
2017-Sep-12 01:30N 30°05' W 093°20'0 0.1
2017-Sep-12 01:00N 30°05' W 093°20'0 0.0
2017-Sep-12 00:30N 30°05' W 093°20'0 0.0
2017-Sep-12 00:00N 30°05' W 093°20'0 0.0
2017-Sep-11 23:30N 30°05' W 093°20'0 0.5
2017-Sep-11 23:00N 30°05' W 093°20'0 0.0
2017-Sep-11 22:30N 30°05' W 093°20'0 0.0
2017-Sep-11 22:00N 30°05' W 093°20'0 0.1
2017-Sep-11 21:31N 30°05' W 093°20'0 0.5
2017-Sep-11 21:00N 30°05' W 093°20'0 0.0
2017-Sep-11 20:30N 30°05' W 093°20'0 0.0
2017-Sep-11 20:00N 30°05' W 093°20'0 0.0
2017-Sep-11 19:30N 30°05' W 093°20'0 0.0
2017-Sep-11 19:00N 30°05' W 093°20'0 0.0
2017-Sep-11 18:30N 30°05' W 093°20'0 0.0
2017-Sep-11 18:00N 30°05' W 093°20'0 0.0
2017-Sep-11 17:30N 30°05' W 093°20'0 0.0
2017-Sep-11 17:00N 30°05' W 093°20'0 0.0
2017-Sep-11 16:30N 30°05' W 093°20'0 0.0
2017-Sep-11 16:00N 30°05' W 093°20'0 0.0
2017-Sep-11 15:30N 30°05' W 093°20'0 0.0
2017-Sep-11 14:52N 30°05' W 093°20'0 0.0
2017-Sep-11 14:30N 30°05' W 093°20'0 0.0
2017-Sep-11 14:00N 30°05' W 093°20'0 0.0
2017-Sep-11 13:28N 30°05' W 093°20'0 0.0
2017-Sep-11 12:01N 30°05' W 093°20'0 0.0
2017-Sep-11 12:00N 30°05' W 093°20'0 0.0
2017-Sep-11 11:28N 30°05' W 093°20'0 0.0
2017-Sep-11 11:00N 30°05' W 093°20'0 0.0
2017-Sep-11 10:30N 30°05' W 093°20'0 0.0
2017-Sep-11 09:57N 30°05' W 093°20'0 0.0
2017-Sep-11 09:30N 30°05' W 093°20'0 0.0
2017-Sep-11 09:00N 30°05' W 093°20'0 0.0
2017-Sep-11 08:28N 30°05' W 093°20'0 0.0
2017-Sep-11 08:00N 30°05' W 093°20'0 0.0
2017-Sep-11 07:29N 30°05' W 093°20'0 0.0
2017-Sep-11 06:37N 30°05' W 093°20'0 0.0
2017-Sep-11 06:23N 30°05' W 093°20'0 0.0
2017-Sep-11 05:56N 30°05' W 093°20'0 0.0
2017-Sep-11 05:29N 30°05' W 093°20'0 0.0
2017-Sep-11 05:00N 30°05' W 093°20'0 0.0
2017-Sep-11 04:28N 30°05' W 093°20'0 0.0
2017-Sep-11 04:00N 30°05' W 093°20'0 0.0
2017-Sep-11 03:29N 30°05' W 093°20'0 0.0
2017-Sep-11 02:55N 30°05' W 093°20'0 0.0
2017-Sep-11 02:30N 30°05' W 093°20'0 0.0
2017-Sep-11 01:57N 30°05' W 093°20'0 0.0
2017-Sep-11 01:30N 30°05' W 093°20'0 0.0
2017-Sep-11 01:00N 30°05' W 093°20'0 0.5
2017-Sep-11 00:30N 30°05' W 093°20'0 0.5
2017-Sep-11 00:00N 30°05' W 093°20'0 0.0
2017-Sep-10 23:30N 30°05' W 093°20'0 0.0
2017-Sep-10 23:00N 30°05' W 093°20'0 0.0
2017-Sep-10 22:30N 30°05' W 093°20'0 0.0
2017-Sep-10 22:00N 30°05' W 093°20'0 0.1
2017-Sep-10 21:31N 30°05' W 093°20'2 4.1
2017-Sep-10 21:00N 30°06' W 093°18'0 0.0
2017-Sep-10 20:30N 30°06' W 093°18'0 0.0
2017-Sep-10 20:00N 30°06' W 093°18'0 0.1
2017-Sep-10 19:30N 30°06' W 093°18'0 0.0
2017-Sep-10 19:00N 30°06' W 093°18'0 0.0
2017-Sep-10 18:30N 30°06' W 093°18'0 0.6
2017-Sep-10 18:00N 30°06' W 093°19'2 3.4
2017-Sep-10 17:30N 30°05' W 093°20'0 0.0
2017-Sep-10 17:00N 30°05' W 093°20'0 0.0
2017-Sep-10 16:30N 30°05' W 093°20'0 0.0
2017-Sep-10 16:00N 30°05' W 093°20'0 0.0
2017-Sep-10 15:30N 30°05' W 093°20'0 0.0
2017-Sep-10 15:00N 30°05' W 093°20'0 0.0
2017-Sep-10 14:00N 30°05' W 093°20'0 0.2
2017-Sep-10 12:50N 30°05' W 093°20'0 0.0
2017-Sep-10 12:30N 30°05' W 093°20'0 0.0
2017-Sep-10 11:57N 30°05' W 093°20'0 0.0
2017-Sep-10 10:17N 30°05' W 093°20'0 1.3
2017-Sep-10 10:00N 30°05' W 093°20'1 1.6
2017-Sep-10 09:30N 30°06' W 093°19'0 0.3
2017-Sep-10 09:00N 30°06' W 093°19'2 3.9
2017-Sep-10 08:30N 30°04' W 093°21'2 4.0
2017-Sep-10 07:58N 30°04' W 093°23'2 4.8
2017-Sep-10 07:30N 30°04' W 093°26'2 3.3
2017-Sep-10 07:00N 30°04' W 093°27'1 1.3
2017-Sep-10 06:30N 30°04' W 093°28'0 0.3
2017-Sep-10 06:00N 30°04' W 093°28'1 2.4
2017-Sep-10 05:29N 30°04' W 093°30'2 4.1
2017-Sep-10 05:00N 30°04' W 093°32'0 0.1
2017-Sep-10 04:30N 30°04' W 093°32'0 0.0
2017-Sep-10 04:00N 30°04' W 093°32'0 0.0
2017-Sep-10 03:30N 30°04' W 093°32'0 0.0
2017-Sep-10 03:00N 30°04' W 093°32'0 0.0
2017-Sep-10 02:30N 30°04' W 093°32'0 0.0
2017-Sep-10 02:00N 30°04' W 093°32'0 0.0
2017-Sep-10 01:30N 30°04' W 093°32'0 0.0
2017-Sep-10 01:00N 30°04' W 093°32'0 0.0
2017-Sep-10 00:30N 30°04' W 093°32'0 0.0
2017-Sep-10 00:00N 30°04' W 093°32'0 0.0
2017-Sep-09 23:30N 30°04' W 093°32'0 0.0
2017-Sep-09 23:00N 30°04' W 093°32'0 0.0
2017-Sep-09 22:30N 30°04' W 093°32'0 0.0
2017-Sep-09 22:00N 30°04' W 093°32'0 0.0
2017-Sep-09 21:30N 30°04' W 093°32'0 0.0
2017-Sep-09 21:00N 30°04' W 093°32'0 0.0
2017-Sep-09 20:30N 30°04' W 093°32'0 0.0
2017-Sep-09 20:00N 30°04' W 093°32'0 0.0
2017-Sep-09 19:30N 30°04' W 093°32'0 0.0
2017-Sep-09 19:00N 30°04' W 093°32'0 0.0
2017-Sep-09 18:30N 30°04' W 093°32'0 0.0
2017-Sep-09 18:00N 30°04' W 093°32'0 0.0
2017-Sep-09 17:30N 30°04' W 093°32'0 0.0
2017-Sep-09 17:00N 30°04' W 093°32'0 0.0
2017-Sep-09 16:30N 30°04' W 093°32'0 0.0
2017-Sep-09 16:00N 30°04' W 093°32'0 0.0
2017-Sep-09 15:30N 30°04' W 093°32'0 0.0
2017-Sep-09 15:00N 30°04' W 093°32'0 0.0
2017-Sep-09 14:29N 30°04' W 093°32'0 0.0
2017-Sep-09 13:58N 30°04' W 093°32'0 0.0
2017-Sep-09 13:03N 30°04' W 093°32'0 0.0
2017-Sep-09 13:00N 30°04' W 093°32'0 0.0
2017-Sep-09 12:30N 30°04' W 093°32'0 0.0
2017-Sep-09 12:00N 30°04' W 093°32'0 0.0
2017-Sep-09 11:23N 30°04' W 093°32'0 0.0
2017-Sep-09 10:57N 30°04' W 093°32'0 0.0
2017-Sep-09 10:26N 30°04' W 093°32'0 0.0
2017-Sep-09 09:58N 30°04' W 093°32'0 0.0
2017-Sep-09 09:30N 30°04' W 093°32'0 0.0
2017-Sep-09 08:57N 30°04' W 093°32'0 0.0
2017-Sep-09 08:30N 30°04' W 093°32'0 0.0
2017-Sep-09 07:59N 30°04' W 093°32'0 0.0
2017-Sep-09 07:30N 30°04' W 093°32'0 0.0
2017-Sep-09 07:00N 30°04' W 093°32'0 0.0
2017-Sep-09 06:30N 30°04' W 093°32'0 0.0
2017-Sep-09 04:29N 30°04' W 093°32'0 0.0
2017-Sep-09 03:50N 30°04' W 093°32'0 0.0
2017-Sep-09 03:10N 30°04' W 093°32'0 0.0
2017-Sep-09 03:00N 30°04' W 093°32'0 0.0
2017-Sep-09 02:22N 30°04' W 093°32'0 0.0
2017-Sep-09 02:00N 30°04' W 093°32'0 0.0
2017-Sep-09 01:21N 30°04' W 093°32'0 0.0
2017-Sep-09 01:00N 30°04' W 093°32'0 0.0
2017-Sep-09 00:30N 30°04' W 093°32'0 0.0
2017-Sep-09 00:00N 30°04' W 093°32'0 0.0
2017-Sep-08 23:30N 30°04' W 093°32'0 0.0
2017-Sep-08 23:00N 30°04' W 093°32'0 0.0
2017-Sep-08 22:30N 30°04' W 093°32'0 0.0
2017-Sep-08 22:00N 30°04' W 093°32'0 0.0
2017-Sep-08 21:29N 30°04' W 093°32'0 0.0
2017-Sep-08 21:00N 30°04' W 093°32'0 0.0
2017-Sep-08 20:30N 30°04' W 093°32'0 0.0
2017-Sep-08 20:00N 30°04' W 093°32'0 0.0
2017-Sep-08 19:30N 30°04' W 093°32'0 0.0
2017-Sep-08 19:00N 30°04' W 093°32'0 0.0
2017-Sep-08 18:30N 30°04' W 093°32'0 0.0
2017-Sep-08 18:00N 30°04' W 093°32'0 0.0
2017-Sep-08 17:30N 30°04' W 093°32'0 0.0
2017-Sep-08 17:00N 30°04' W 093°32'0 0.0
2017-Sep-08 16:30N 30°04' W 093°32'0 0.0
2017-Sep-08 16:00N 30°04' W 093°32'0 0.0
2017-Sep-08 15:30N 30°04' W 093°32'0 0.0
2017-Sep-08 15:00N 30°04' W 093°32'0 0.0
2017-Sep-08 14:30N 30°04' W 093°32'0 0.0
2017-Sep-08 14:00N 30°04' W 093°32'0 0.0
2017-Sep-08 13:10N 30°04' W 093°32'0 0.0
2017-Sep-08 13:00N 30°04' W 093°32'0 0.0
2017-Sep-08 12:30N 30°04' W 093°32'0 0.0
2017-Sep-08 12:00N 30°04' W 093°32'0 0.0
2017-Sep-08 11:30N 30°04' W 093°32'0 0.0
2017-Sep-08 08:48N 30°04' W 093°32'0 0.0
2017-Sep-08 08:18N 30°04' W 093°32'0 0.0
2017-Sep-08 07:55N 30°04' W 093°32'0 0.0
2017-Sep-08 07:30N 30°04' W 093°32'0 0.0
2017-Sep-08 06:44N 30°04' W 093°32'0 0.0
2017-Sep-08 06:16N 30°04' W 093°32'0 0.0
2017-Sep-08 04:57N 30°04' W 093°32'0 0.0
2017-Sep-08 02:17N 30°04' W 093°32'0 0.0
2017-Sep-08 02:00N 30°04' W 093°32'0 0.0
2017-Sep-08 01:27N 30°04' W 093°32'0 0.0
2017-Sep-08 01:00N 30°04' W 093°32'0 0.2
2017-Sep-08 00:30N 30°04' W 093°32'1 1.5
2017-Sep-08 00:00N 30°04' W 093°33'0 0.3
2017-Sep-07 23:30N 30°04' W 093°33'0 0.3
2017-Sep-07 23:00N 30°04' W 093°33'0 0.4
2017-Sep-07 22:30N 30°04' W 093°34'0 0.0
2017-Sep-07 22:00N 30°04' W 093°34'0 0.1
2017-Sep-07 21:30N 30°04' W 093°34'2 3.1
2017-Sep-07 21:00N 30°04' W 093°35'3 5.0
2017-Sep-07 20:30N 30°04' W 093°38'72 2.1
2017-Sep-06 10:32N 29°29' W 094°52'0 5.5
2017-Sep-06 10:30N 29°29' W 094°52'3 5.4
2017-Sep-06 10:00N 29°31' W 094°53'3 5.3
2017-Sep-06 09:30N 29°33' W 094°55'3 5.4
2017-Sep-06 09:00N 29°36' W 094°57'3 6.1
2017-Sep-06 08:30N 29°38' W 094°58'3 6.4
2017-Sep-06 08:00N 29°41' W 094°59'3 5.4
2017-Sep-06 07:27N 29°44' W 095°01'3 5.3
2017-Sep-06 06:55N 29°45' W 095°04'  

Dump ship's entire track history